Главная страница
METAR-TAF:

METAR-TAF

Аэропорты :

Тайпин

Харбин, Китай

широта: 45-45N, долгота: 126-46E, высота над уровнем моря: 143 м

Текущие метеонаблюдения

Эта сводка был подготовлена 22 минут назад, в 11:00 UTC
Ветер 8 Узел от западный-юго-западный
Температура 12°C
Влажность 71%
Давление 1019 hPa
Видимость 10 км и более
небольшая облачность на высоте 3000 фута

METAR: ZYHB 241100Z 25004MPS 9999 FEW030 12/07 Q1019 NOSIG

Время: 19:22 (11:22 UTC)

Прогноз

Эта сводка был подготовлена 9 часа и 13 минут назад, в 02:09 UTC
Прогноз действительный с 24-го 06 UTC до 25-го 06 UTC
Ветер 8 Узел от западно-северо-западный
Видимость 10 км и более
Нет облачности ниже 1500 м, и нет кучево-дождевой облачности

TAF: ZYHB 240209Z 2406/2506 29004MPS CAVOK TX16/2406Z TN06/2421Z

Метеонаблюдения и прогнозы для более 4000 аэропортов (сводки METAR и TAF).

Имеющиеся станции представлены на карте желтыми и красными точками.

Чтобы увидеть название станции, наведите на нее мышь.

Затем щелкните, чтобы увидеть метеонаблюдения и метеопрогнозы.

Управление картой: чтобы увеличить масштаб, щелкните зеленые кнопки с черным крестиком; чтобы уменьшить масштаб, щелкните зеленую кнопку с тире; для просмотра соседних карт щелкайте зеленые стрелки.


METAR-TAF: